sensor_id;sensor_type;location;lat;lon;timestamp;P1;durP1;ratioP1;P2;durP2;ratioP2
65567;SDS011;52211;50.154;8.682;2023-09-30T00:00:09;3.20;;;2.13;;
65567;SDS011;52211;50.154;8.682;2023-09-30T00:02:41;2.83;;;2.10;;
65567;SDS011;52211;50.154;8.682;2023-09-30T00:05:11;4.37;;;2.57;;
65567;SDS011;52211;50.154;8.682;2023-09-30T00:07:38;5.43;;;2.57;;
65567;SDS011;52211;50.154;8.682;2023-09-30T00:10:05;2.93;;;2.03;;
65567;SDS011;52211;50.154;8.682;2023-09-30T00:12:33;5.07;;;2.77;;
65567;SDS011;52211;50.154;8.682;2023-09-30T00:15:00;4.50;;;2.47;;
65567;SDS011;52211;50.154;8.682;2023-09-30T00:17:27;4.77;;;2.20;;
65567;SDS011;52211;50.154;8.682;2023-09-30T00:19:54;10.97;;;2.83;;
65567;SDS011;52211;50.154;8.682;2023-09-30T00:22:23;2.40;;;2.10;;
65567;SDS011;52211;50.154;8.682;2023-09-30T00:24:52;3.93;;;2.63;;
65567;SDS011;52211;50.154;8.682;2023-09-30T00:27:24;2.43;;;2.13;;
65567;SDS011;52211;50.154;8.682;2023-09-30T00:29:53;3.00;;;2.70;;
65567;SDS011;52211;50.154;8.682;2023-09-30T00:32:22;3.10;;;2.00;;
65567;SDS011;52211;50.154;8.682;2023-09-30T00:34:55;3.33;;;2.27;;
65567;SDS011;52211;50.154;8.682;2023-09-30T00:37:27;2.97;;;2.00;;
65567;SDS011;52211;50.154;8.682;2023-09-30T00:39:54;2.97;;;2.20;;
65567;SDS011;52211;50.154;8.682;2023-09-30T00:42:21;4.53;;;2.30;;
65567;SDS011;52211;50.154;8.682;2023-09-30T00:44:48;4.37;;;3.10;;
65567;SDS011;52211;50.154;8.682;2023-09-30T00:47:18;4.43;;;2.10;;
65567;SDS011;52211;50.154;8.682;2023-09-30T00:49:52;3.57;;;2.60;;
65567;SDS011;52211;50.154;8.682;2023-09-30T00:52:19;3.70;;;2.47;;
65567;SDS011;52211;50.154;8.682;2023-09-30T00:54:54;5.00;;;2.53;;
65567;SDS011;52211;50.154;8.682;2023-09-30T00:57:23;4.67;;;3.20;;
65567;SDS011;52211;50.154;8.682;2023-09-30T00:59:54;5.17;;;2.40;;
65567;SDS011;52211;50.154;8.682;2023-09-30T01:02:21;4.07;;;2.47;;
65567;SDS011;52211;50.154;8.682;2023-09-30T01:04:49;3.73;;;3.27;;
65567;SDS011;52211;50.154;8.682;2023-09-30T01:07:16;4.43;;;2.60;;
65567;SDS011;52211;50.154;8.682;2023-09-30T01:09:44;5.00;;;2.83;;
65567;SDS011;52211;50.154;8.682;2023-09-30T01:12:12;3.87;;;2.43;;
65567;SDS011;52211;50.154;8.682;2023-09-30T01:14:42;3.53;;;2.47;;
65567;SDS011;52211;50.154;8.682;2023-09-30T01:17:10;4.50;;;2.37;;
65567;SDS011;52211;50.154;8.682;2023-09-30T01:19:40;5.67;;;3.27;;
65567;SDS011;52211;50.154;8.682;2023-09-30T01:22:11;4.27;;;2.63;;
65567;SDS011;52211;50.154;8.682;2023-09-30T01:24:39;4.40;;;2.93;;
65567;SDS011;52211;50.154;8.682;2023-09-30T01:27:07;3.53;;;2.83;;
65567;SDS011;52211;50.154;8.682;2023-09-30T01:29:37;3.33;;;2.47;;
65567;SDS011;52211;50.154;8.682;2023-09-30T01:32:05;3.27;;;2.57;;
65567;SDS011;52211;50.154;8.682;2023-09-30T01:34:36;3.07;;;2.50;;
65567;SDS011;52211;50.154;8.682;2023-09-30T01:37:06;4.13;;;2.50;;
65567;SDS011;52211;50.154;8.682;2023-09-30T01:39:38;2.73;;;2.47;;
65567;SDS011;52211;50.154;8.682;2023-09-30T01:42:10;2.80;;;2.10;;
65567;SDS011;52211;50.154;8.682;2023-09-30T01:44:40;4.43;;;2.70;;
65567;SDS011;52211;50.154;8.682;2023-09-30T01:47:12;5.73;;;2.83;;
65567;SDS011;52211;50.154;8.682;2023-09-30T01:49:39;3.27;;;2.47;;
65567;SDS011;52211;50.154;8.682;2023-09-30T01:52:08;5.27;;;2.73;;
65567;SDS011;52211;50.154;8.682;2023-09-30T01:54:37;3.23;;;2.57;;
65567;SDS011;52211;50.154;8.682;2023-09-30T01:57:04;4.63;;;2.80;;
65567;SDS011;52211;50.154;8.682;2023-09-30T01:59:33;5.87;;;2.43;;
65567;SDS011;52211;50.154;8.682;2023-09-30T02:02:03;3.57;;;2.90;;
65567;SDS011;52211;50.154;8.682;2023-09-30T02:04:32;2.93;;;2.23;;
65567;SDS011;52211;50.154;8.682;2023-09-30T02:06:59;2.77;;;2.53;;
65567;SDS011;52211;50.154;8.682;2023-09-30T02:09:26;5.53;;;2.80;;
65567;SDS011;52211;50.154;8.682;2023-09-30T02:11:54;3.67;;;2.53;;
65567;SDS011;52211;50.154;8.682;2023-09-30T02:14:26;4.57;;;2.80;;
65567;SDS011;52211;50.154;8.682;2023-09-30T02:16:55;4.07;;;2.60;;
65567;SDS011;52211;50.154;8.682;2023-09-30T02:19:24;4.07;;;3.07;;
65567;SDS011;52211;50.154;8.682;2023-09-30T02:21:56;5.40;;;2.77;;
65567;SDS011;52211;50.154;8.682;2023-09-30T02:24:23;4.37;;;3.00;;
65567;SDS011;52211;50.154;8.682;2023-09-30T02:26:50;3.33;;;2.37;;
65567;SDS011;52211;50.154;8.682;2023-09-30T02:29:17;4.53;;;2.73;;
65567;SDS011;52211;50.154;8.682;2023-09-30T02:31:48;3.37;;;2.57;;
65567;SDS011;52211;50.154;8.682;2023-09-30T02:34:15;5.30;;;3.03;;
65567;SDS011;52211;50.154;8.682;2023-09-30T02:36:53;4.33;;;2.73;;
65567;SDS011;52211;50.154;8.682;2023-09-30T02:39:24;4.80;;;2.80;;
65567;SDS011;52211;50.154;8.682;2023-09-30T02:41:55;3.50;;;2.70;;
65567;SDS011;52211;50.154;8.682;2023-09-30T02:44:25;3.27;;;2.80;;
65567;SDS011;52211;50.154;8.682;2023-09-30T02:46:56;4.50;;;4.00;;
65567;SDS011;52211;50.154;8.682;2023-09-30T02:49:28;5.37;;;2.77;;
65567;SDS011;52211;50.154;8.682;2023-09-30T02:51:58;5.17;;;3.33;;
65567;SDS011;52211;50.154;8.682;2023-09-30T02:54:29;4.17;;;2.83;;
65567;SDS011;52211;50.154;8.682;2023-09-30T02:57:01;6.33;;;3.27;;
65567;SDS011;52211;50.154;8.682;2023-09-30T02:59:30;6.03;;;3.13;;
65567;SDS011;52211;50.154;8.682;2023-09-30T03:02:04;3.67;;;3.03;;
65567;SDS011;52211;50.154;8.682;2023-09-30T03:04:36;4.83;;;2.87;;
65567;SDS011;52211;50.154;8.682;2023-09-30T03:07:09;3.97;;;3.00;;
65567;SDS011;52211;50.154;8.682;2023-09-30T03:09:39;4.90;;;3.50;;
65567;SDS011;52211;50.154;8.682;2023-09-30T03:12:07;5.70;;;2.83;;
65567;SDS011;52211;50.154;8.682;2023-09-30T03:14:38;5.20;;;3.40;;
65567;SDS011;52211;50.154;8.682;2023-09-30T03:17:06;4.30;;;3.57;;
65567;SDS011;52211;50.154;8.682;2023-09-30T03:19:38;3.53;;;2.83;;
65567;SDS011;52211;50.154;8.682;2023-09-30T03:22:05;3.50;;;3.20;;
65567;SDS011;52211;50.154;8.682;2023-09-30T03:24:39;5.93;;;2.83;;
65567;SDS011;52211;50.154;8.682;2023-09-30T03:27:12;4.87;;;3.13;;
65567;SDS011;52211;50.154;8.682;2023-09-30T03:29:41;3.77;;;3.40;;
65567;SDS011;52211;50.154;8.682;2023-09-30T03:32:10;5.43;;;3.30;;
65567;SDS011;52211;50.154;8.682;2023-09-30T03:34:40;3.77;;;2.83;;
65567;SDS011;52211;50.154;8.682;2023-09-30T03:37:14;4.13;;;3.10;;
65567;SDS011;52211;50.154;8.682;2023-09-30T03:39:46;3.63;;;3.03;;
65567;SDS011;52211;50.154;8.682;2023-09-30T03:42:15;4.37;;;2.70;;
65567;SDS011;52211;50.154;8.682;2023-09-30T03:44:45;3.70;;;3.27;;
65567;SDS011;52211;50.154;8.682;2023-09-30T03:47:18;3.23;;;2.93;;
65567;SDS011;52211;50.154;8.682;2023-09-30T03:49:45;6.00;;;3.03;;
65567;SDS011;52211;50.154;8.682;2023-09-30T03:52:14;4.07;;;2.97;;
65567;SDS011;52211;50.154;8.682;2023-09-30T03:54:51;4.43;;;3.77;;
65567;SDS011;52211;50.154;8.682;2023-09-30T03:57:19;6.70;;;3.40;;
65567;SDS011;52211;50.154;8.682;2023-09-30T03:59:48;4.00;;;3.40;;
65567;SDS011;52211;50.154;8.682;2023-09-30T04:02:15;6.07;;;3.07;;
65567;SDS011;52211;50.154;8.682;2023-09-30T04:04:47;4.97;;;3.27;;
65567;SDS011;52211;50.154;8.682;2023-09-30T04:07:17;5.47;;;3.50;;
65567;SDS011;52211;50.154;8.682;2023-09-30T04:09:47;3.87;;;2.87;;
65567;SDS011;52211;50.154;8.682;2023-09-30T04:12:18;4.40;;;3.10;;
65567;SDS011;52211;50.154;8.682;2023-09-30T04:14:45;4.23;;;3.43;;
65567;SDS011;52211;50.154;8.682;2023-09-30T04:17:17;3.90;;;3.20;;
65567;SDS011;52211;50.154;8.682;2023-09-30T04:19:49;3.77;;;3.00;;
65567;SDS011;52211;50.154;8.682;2023-09-30T04:22:19;4.03;;;3.17;;
65567;SDS011;52211;50.154;8.682;2023-09-30T04:24:47;4.23;;;3.17;;
65567;SDS011;52211;50.154;8.682;2023-09-30T04:27:19;4.73;;;3.00;;
65567;SDS011;52211;50.154;8.682;2023-09-30T04:29:48;3.93;;;2.93;;
65567;SDS011;52211;50.154;8.682;2023-09-30T04:32:18;4.37;;;3.07;;
65567;SDS011;52211;50.154;8.682;2023-09-30T04:34:46;6.00;;;3.50;;
65567;SDS011;52211;50.154;8.682;2023-09-30T04:37:13;4.97;;;2.80;;
65567;SDS011;52211;50.154;8.682;2023-09-30T04:39:42;3.57;;;3.10;;
65567;SDS011;52211;50.154;8.682;2023-09-30T04:42:11;5.73;;;3.27;;
65567;SDS011;52211;50.154;8.682;2023-09-30T04:44:38;4.10;;;3.30;;
65567;SDS011;52211;50.154;8.682;2023-09-30T04:47:08;4.50;;;2.90;;
65567;SDS011;52211;50.154;8.682;2023-09-30T04:49:37;6.20;;;2.77;;
65567;SDS011;52211;50.154;8.682;2023-09-30T04:52:07;4.13;;;2.77;;
65567;SDS011;52211;50.154;8.682;2023-09-30T04:54:36;5.40;;;2.73;;
65567;SDS011;52211;50.154;8.682;2023-09-30T04:57:08;4.37;;;3.37;;
65567;SDS011;52211;50.154;8.682;2023-09-30T04:59:39;3.60;;;2.60;;
65567;SDS011;52211;50.154;8.682;2023-09-30T05:02:09;6.27;;;3.00;;
65567;SDS011;52211;50.154;8.682;2023-09-30T05:04:39;5.17;;;3.63;;
65567;SDS011;52211;50.154;8.682;2023-09-30T05:07:11;3.67;;;3.03;;
65567;SDS011;52211;50.154;8.682;2023-09-30T05:09:39;4.97;;;2.83;;
65567;SDS011;52211;50.154;8.682;2023-09-30T05:12:07;5.67;;;2.90;;
65567;SDS011;52211;50.154;8.682;2023-09-30T05:14:37;6.43;;;3.10;;
65567;SDS011;52211;50.154;8.682;2023-09-30T05:17:09;4.00;;;3.03;;
65567;SDS011;52211;50.154;8.682;2023-09-30T05:19:39;5.37;;;3.03;;
65567;SDS011;52211;50.154;8.682;2023-09-30T05:22:08;5.60;;;2.93;;
65567;SDS011;52211;50.154;8.682;2023-09-30T05:24:36;5.27;;;3.33;;
65567;SDS011;52211;50.154;8.682;2023-09-30T05:27:03;7.20;;;3.53;;
65567;SDS011;52211;50.154;8.682;2023-09-30T05:29:34;3.80;;;2.60;;
65567;SDS011;52211;50.154;8.682;2023-09-30T05:32:02;4.70;;;3.10;;
65567;SDS011;52211;50.154;8.682;2023-09-30T05:34:33;5.10;;;3.10;;
65567;SDS011;52211;50.154;8.682;2023-09-30T05:37:00;3.80;;;2.80;;
65567;SDS011;52211;50.154;8.682;2023-09-30T05:39:29;4.43;;;3.20;;
65567;SDS011;52211;50.154;8.682;2023-09-30T05:41:58;4.40;;;3.67;;
65567;SDS011;52211;50.154;8.682;2023-09-30T05:44:25;4.57;;;3.27;;
65567;SDS011;52211;50.154;8.682;2023-09-30T05:47:00;6.13;;;3.77;;
65567;SDS011;52211;50.154;8.682;2023-09-30T05:49:27;5.13;;;4.43;;
65567;SDS011;52211;50.154;8.682;2023-09-30T05:51:56;4.33;;;3.60;;
65567;SDS011;52211;50.154;8.682;2023-09-30T05:54:25;3.83;;;3.53;;
65567;SDS011;52211;50.154;8.682;2023-09-30T05:56:52;5.83;;;4.00;;
65567;SDS011;52211;50.154;8.682;2023-09-30T05:59:19;5.10;;;4.40;;
65567;SDS011;52211;50.154;8.682;2023-09-30T06:01:51;4.60;;;3.47;;
65567;SDS011;52211;50.154;8.682;2023-09-30T06:04:18;5.63;;;3.57;;
65567;SDS011;52211;50.154;8.682;2023-09-30T06:06:53;5.33;;;4.20;;
65567;SDS011;52211;50.154;8.682;2023-09-30T06:09:22;6.27;;;4.73;;
65567;SDS011;52211;50.154;8.682;2023-09-30T06:11:51;8.47;;;4.77;;
65567;SDS011;52211;50.154;8.682;2023-09-30T06:14:18;6.17;;;4.53;;
65567;SDS011;52211;50.154;8.682;2023-09-30T06:16:45;6.90;;;4.83;;
65567;SDS011;52211;50.154;8.682;2023-09-30T06:19:14;6.23;;;4.40;;
65567;SDS011;52211;50.154;8.682;2023-09-30T06:21:44;6.23;;;5.57;;
65567;SDS011;52211;50.154;8.682;2023-09-30T06:24:13;4.97;;;4.20;;
65567;SDS011;52211;50.154;8.682;2023-09-30T06:26:40;5.37;;;4.30;;
65567;SDS011;52211;50.154;8.682;2023-09-30T06:29:09;5.80;;;4.60;;
65567;SDS011;52211;50.154;8.682;2023-09-30T06:31:41;5.10;;;4.10;;
65567;SDS011;52211;50.154;8.682;2023-09-30T06:34:08;6.47;;;3.97;;
65567;SDS011;52211;50.154;8.682;2023-09-30T06:36:37;6.67;;;4.93;;
65567;SDS011;52211;50.154;8.682;2023-09-30T06:39:04;6.60;;;3.90;;
65567;SDS011;52211;50.154;8.682;2023-09-30T06:41:32;4.17;;;3.77;;
65567;SDS011;52211;50.154;8.682;2023-09-30T06:44:00;5.20;;;3.97;;
65567;SDS011;52211;50.154;8.682;2023-09-30T06:46:29;5.97;;;4.13;;
65567;SDS011;52211;50.154;8.682;2023-09-30T06:49:03;6.20;;;4.70;;
65567;SDS011;52211;50.154;8.682;2023-09-30T06:51:30;5.37;;;3.83;;
65567;SDS011;52211;50.154;8.682;2023-09-30T06:53:59;7.20;;;4.77;;
65567;SDS011;52211;50.154;8.682;2023-09-30T06:56:35;6.23;;;4.97;;
65567;SDS011;52211;50.154;8.682;2023-09-30T06:59:04;4.53;;;3.90;;
65567;SDS011;52211;50.154;8.682;2023-09-30T07:01:38;5.20;;;4.00;;
65567;SDS011;52211;50.154;8.682;2023-09-30T07:04:05;6.07;;;4.57;;
65567;SDS011;52211;50.154;8.682;2023-09-30T07:06:37;4.30;;;3.53;;
65567;SDS011;52211;50.154;8.682;2023-09-30T07:09:04;6.60;;;3.90;;
65567;SDS011;52211;50.154;8.682;2023-09-30T07:11:31;7.23;;;5.50;;
65567;SDS011;52211;50.154;8.682;2023-09-30T07:14:03;6.63;;;5.17;;
65567;SDS011;52211;50.154;8.682;2023-09-30T07:16:37;9.60;;;5.83;;
65567;SDS011;52211;50.154;8.682;2023-09-30T07:19:08;6.67;;;4.40;;
65567;SDS011;52211;50.154;8.682;2023-09-30T07:21:39;6.37;;;4.00;;
65567;SDS011;52211;50.154;8.682;2023-09-30T07:24:10;5.53;;;4.10;;
65567;SDS011;52211;50.154;8.682;2023-09-30T07:26:41;6.00;;;4.53;;
65567;SDS011;52211;50.154;8.682;2023-09-30T07:29:09;7.23;;;4.93;;
65567;SDS011;52211;50.154;8.682;2023-09-30T07:31:36;6.27;;;4.33;;
65567;SDS011;52211;50.154;8.682;2023-09-30T07:34:03;7.17;;;4.33;;
65567;SDS011;52211;50.154;8.682;2023-09-30T07:36:33;6.87;;;5.07;;
65567;SDS011;52211;50.154;8.682;2023-09-30T07:39:02;3.93;;;3.57;;
65567;SDS011;52211;50.154;8.682;2023-09-30T07:41:34;6.73;;;4.10;;
65567;SDS011;52211;50.154;8.682;2023-09-30T07:44:08;6.50;;;3.80;;
65567;SDS011;52211;50.154;8.682;2023-09-30T07:46:38;4.70;;;4.20;;
65567;SDS011;52211;50.154;8.682;2023-09-30T07:49:08;8.33;;;3.67;;
65567;SDS011;52211;50.154;8.682;2023-09-30T07:51:38;5.23;;;4.27;;
65567;SDS011;52211;50.154;8.682;2023-09-30T07:54:08;6.60;;;4.23;;
65567;SDS011;52211;50.154;8.682;2023-09-30T07:56:55;5.60;;;4.13;;
65567;SDS011;52211;50.154;8.682;2023-09-30T07:59:26;6.03;;;3.60;;
65567;SDS011;52211;50.154;8.682;2023-09-30T08:02:00;3.77;;;3.30;;
65567;SDS011;52211;50.154;8.682;2023-09-30T08:04:28;6.33;;;3.90;;
65567;SDS011;52211;50.154;8.682;2023-09-30T08:06:56;5.00;;;4.00;;
65567;SDS011;52211;50.154;8.682;2023-09-30T08:09:26;5.10;;;2.83;;
65567;SDS011;52211;50.154;8.682;2023-09-30T08:11:53;4.00;;;2.97;;
65567;SDS011;52211;50.154;8.682;2023-09-30T08:14:23;4.77;;;3.07;;
65567;SDS011;52211;50.154;8.682;2023-09-30T08:16:52;4.33;;;3.43;;
65567;SDS011;52211;50.154;8.682;2023-09-30T08:19:19;6.30;;;4.00;;
65567;SDS011;52211;50.154;8.682;2023-09-30T08:21:46;4.53;;;3.67;;
65567;SDS011;52211;50.154;8.682;2023-09-30T08:24:14;8.77;;;3.93;;
65567;SDS011;52211;50.154;8.682;2023-09-30T08:26:43;5.83;;;3.80;;
65567;SDS011;52211;50.154;8.682;2023-09-30T08:29:12;3.90;;;3.40;;
65567;SDS011;52211;50.154;8.682;2023-09-30T08:31:39;6.77;;;3.10;;
65567;SDS011;52211;50.154;8.682;2023-09-30T08:34:06;5.53;;;3.63;;
65567;SDS011;52211;50.154;8.682;2023-09-30T08:36:34;6.13;;;4.07;;
65567;SDS011;52211;50.154;8.682;2023-09-30T08:39:01;4.33;;;3.03;;
65567;SDS011;52211;50.154;8.682;2023-09-30T08:41:31;6.00;;;3.03;;
65567;SDS011;52211;50.154;8.682;2023-09-30T08:44:00;3.67;;;2.80;;
65567;SDS011;52211;50.154;8.682;2023-09-30T08:46:31;4.40;;;2.83;;
65567;SDS011;52211;50.154;8.682;2023-09-30T08:49:01;5.93;;;4.60;;
65567;SDS011;52211;50.154;8.682;2023-09-30T08:51:35;5.53;;;3.10;;
65567;SDS011;52211;50.154;8.682;2023-09-30T08:54:03;4.20;;;3.10;;
65567;SDS011;52211;50.154;8.682;2023-09-30T08:56:31;3.83;;;3.33;;
65567;SDS011;52211;50.154;8.682;2023-09-30T08:59:03;2.90;;;2.67;;
65567;SDS011;52211;50.154;8.682;2023-09-30T09:01:31;3.43;;;3.07;;
65567;SDS011;52211;50.154;8.682;2023-09-30T09:03:58;5.17;;;4.17;;
65567;SDS011;52211;50.154;8.682;2023-09-30T09:06:25;3.20;;;2.80;;
65567;SDS011;52211;50.154;8.682;2023-09-30T09:09:20;8.63;;;3.93;;
65567;SDS011;52211;50.154;8.682;2023-09-30T09:11:48;4.03;;;2.93;;
65567;SDS011;52211;50.154;8.682;2023-09-30T09:14:35;4.90;;;3.07;;
65567;SDS011;52211;50.154;8.682;2023-09-30T09:17:07;2.90;;;2.60;;
65567;SDS011;52211;50.154;8.682;2023-09-30T09:19:38;3.50;;;3.20;;
65567;SDS011;52211;50.154;8.682;2023-09-30T09:22:05;5.70;;;3.40;;
65567;SDS011;52211;50.154;8.682;2023-09-30T09:24:34;3.73;;;2.80;;
65567;SDS011;52211;50.154;8.682;2023-09-30T09:27:11;3.00;;;2.70;;
65567;SDS011;52211;50.154;8.682;2023-09-30T09:29:43;4.53;;;3.13;;
65567;SDS011;52211;50.154;8.682;2023-09-30T09:32:12;5.07;;;3.50;;
65567;SDS011;52211;50.154;8.682;2023-09-30T09:34:42;3.43;;;2.70;;
65567;SDS011;52211;50.154;8.682;2023-09-30T09:37:14;3.43;;;2.73;;
65567;SDS011;52211;50.154;8.682;2023-09-30T09:39:54;3.10;;;2.80;;
65567;SDS011;52211;50.154;8.682;2023-09-30T09:42:30;3.53;;;2.93;;
65567;SDS011;52211;50.154;8.682;2023-09-30T09:45:03;4.67;;;3.50;;
65567;SDS011;52211;50.154;8.682;2023-09-30T09:47:32;3.27;;;2.67;;
65567;SDS011;52211;50.154;8.682;2023-09-30T09:50:03;3.03;;;2.73;;
65567;SDS011;52211;50.154;8.682;2023-09-30T09:52:37;4.20;;;2.57;;
65567;SDS011;52211;50.154;8.682;2023-09-30T09:55:12;3.07;;;2.60;;
65567;SDS011;52211;50.154;8.682;2023-09-30T09:57:48;7.13;;;4.10;;
65567;SDS011;52211;50.154;8.682;2023-09-30T10:00:22;7.20;;;4.40;;
65567;SDS011;52211;50.154;8.682;2023-09-30T10:02:51;4.83;;;3.13;;
65567;SDS011;52211;50.154;8.682;2023-09-30T10:05:21;4.00;;;3.13;;
65567;SDS011;52211;50.154;8.682;2023-09-30T10:07:54;4.97;;;3.17;;
65567;SDS011;52211;50.154;8.682;2023-09-30T10:10:35;5.33;;;3.50;;
65567;SDS011;52211;50.154;8.682;2023-09-30T10:13:08;3.57;;;2.57;;
65567;SDS011;52211;50.154;8.682;2023-09-30T10:15:58;4.80;;;2.57;;
65567;SDS011;52211;50.154;8.682;2023-09-30T10:18:27;4.63;;;2.60;;
65567;SDS011;52211;50.154;8.682;2023-09-30T10:20:54;7.10;;;4.03;;
65567;SDS011;52211;50.154;8.682;2023-09-30T10:23:36;4.53;;;3.17;;
65567;SDS011;52211;50.154;8.682;2023-09-30T10:26:25;3.20;;;2.90;;
65567;SDS011;52211;50.154;8.682;2023-09-30T10:28:51;4.27;;;2.53;;
65567;SDS011;52211;50.154;8.682;2023-09-30T10:31:22;2.93;;;2.70;;
65567;SDS011;52211;50.154;8.682;2023-09-30T10:36:34;3.53;;;2.47;;
65567;SDS011;52211;50.154;8.682;2023-09-30T10:39:11;3.27;;;2.40;;
65567;SDS011;52211;50.154;8.682;2023-09-30T10:51:54;3.03;;;2.23;;
65567;SDS011;52211;50.154;8.682;2023-09-30T10:54:24;3.30;;;2.00;;
65567;SDS011;52211;50.154;8.682;2023-09-30T10:56:56;2.47;;;2.30;;
65567;SDS011;52211;50.154;8.682;2023-09-30T10:59:30;3.00;;;2.00;;
65567;SDS011;52211;50.154;8.682;2023-09-30T11:02:17;3.03;;;2.30;;
65567;SDS011;52211;50.154;8.682;2023-09-30T11:04:50;3.27;;;2.60;;
65567;SDS011;52211;50.154;8.682;2023-09-30T11:07:20;1.97;;;1.70;;
65567;SDS011;52211;50.154;8.682;2023-09-30T11:09:55;4.70;;;2.23;;
65567;SDS011;52211;50.154;8.682;2023-09-30T11:12:22;3.20;;;2.70;;
65567;SDS011;52211;50.154;8.682;2023-09-30T11:14:58;3.23;;;2.27;;
65567;SDS011;52211;50.154;8.682;2023-09-30T11:17:28;2.40;;;2.03;;
65567;SDS011;52211;50.154;8.682;2023-09-30T11:19:55;2.60;;;1.80;;
65567;SDS011;52211;50.154;8.682;2023-09-30T11:22:24;4.17;;;2.53;;
65567;SDS011;52211;50.154;8.682;2023-09-30T11:24:54;2.20;;;1.90;;
65567;SDS011;52211;50.154;8.682;2023-09-30T11:27:28;2.00;;;1.77;;
65567;SDS011;52211;50.154;8.682;2023-09-30T11:29:57;3.97;;;2.43;;
65567;SDS011;52211;50.154;8.682;2023-09-30T11:32:29;3.00;;;2.37;;
65567;SDS011;52211;50.154;8.682;2023-09-30T11:34:57;4.50;;;2.53;;
65567;SDS011;52211;50.154;8.682;2023-09-30T11:37:33;3.10;;;2.40;;
65567;SDS011;52211;50.154;8.682;2023-09-30T11:40:10;2.77;;;1.97;;
65567;SDS011;52211;50.154;8.682;2023-09-30T11:42:40;3.03;;;2.70;;
65567;SDS011;52211;50.154;8.682;2023-09-30T11:45:20;5.53;;;3.90;;
65567;SDS011;52211;50.154;8.682;2023-09-30T11:47:49;6.67;;;5.07;;
65567;SDS011;52211;50.154;8.682;2023-09-30T11:50:16;5.23;;;3.60;;
65567;SDS011;52211;50.154;8.682;2023-09-30T11:52:47;3.37;;;2.80;;
65567;SDS011;52211;50.154;8.682;2023-09-30T11:55:16;3.63;;;2.40;;
65567;SDS011;52211;50.154;8.682;2023-09-30T11:57:46;4.27;;;2.57;;
65567;SDS011;52211;50.154;8.682;2023-09-30T12:00:13;2.60;;;2.37;;
65567;SDS011;52211;50.154;8.682;2023-09-30T12:02:46;2.83;;;2.20;;
65567;SDS011;52211;50.154;8.682;2023-09-30T12:05:15;2.90;;;2.30;;
65567;SDS011;52211;50.154;8.682;2023-09-30T12:07:44;5.53;;;2.57;;
65567;SDS011;52211;50.154;8.682;2023-09-30T12:10:11;3.80;;;2.10;;
65567;SDS011;52211;50.154;8.682;2023-09-30T12:12:41;2.70;;;1.73;;
65567;SDS011;52211;50.154;8.682;2023-09-30T12:15:10;2.77;;;1.93;;
65567;SDS011;52211;50.154;8.682;2023-09-30T12:17:37;2.47;;;2.27;;
65567;SDS011;52211;50.154;8.682;2023-09-30T12:20:06;3.37;;;2.17;;
65567;SDS011;52211;50.154;8.682;2023-09-30T12:22:35;3.23;;;2.20;;
65567;SDS011;52211;50.154;8.682;2023-09-30T12:25:04;2.83;;;1.60;;
65567;SDS011;52211;50.154;8.682;2023-09-30T12:27:34;3.27;;;2.00;;
65567;SDS011;52211;50.154;8.682;2023-09-30T12:30:06;3.53;;;2.30;;
65567;SDS011;52211;50.154;8.682;2023-09-30T12:32:33;1.57;;;1.40;;
65567;SDS011;52211;50.154;8.682;2023-09-30T12:35:00;2.20;;;1.70;;
65567;SDS011;52211;50.154;8.682;2023-09-30T12:37:27;2.07;;;1.87;;
65567;SDS011;52211;50.154;8.682;2023-09-30T12:39:57;3.10;;;2.00;;
65567;SDS011;52211;50.154;8.682;2023-09-30T12:42:24;2.27;;;1.50;;
65567;SDS011;52211;50.154;8.682;2023-09-30T12:44:51;3.47;;;1.73;;
65567;SDS011;52211;50.154;8.682;2023-09-30T12:47:18;2.17;;;1.40;;
65567;SDS011;52211;50.154;8.682;2023-09-30T12:49:45;2.10;;;1.40;;
65567;SDS011;52211;50.154;8.682;2023-09-30T12:52:14;2.23;;;1.90;;
65567;SDS011;52211;50.154;8.682;2023-09-30T12:54:46;2.73;;;1.63;;
65567;SDS011;52211;50.154;8.682;2023-09-30T12:57:17;2.40;;;1.90;;
65567;SDS011;52211;50.154;8.682;2023-09-30T12:59:45;3.30;;;1.77;;
65567;SDS011;52211;50.154;8.682;2023-09-30T13:02:15;1.67;;;1.57;;
65567;SDS011;52211;50.154;8.682;2023-09-30T13:04:44;1.90;;;1.53;;
65567;SDS011;52211;50.154;8.682;2023-09-30T13:07:12;1.97;;;1.77;;
65567;SDS011;52211;50.154;8.682;2023-09-30T13:09:44;1.70;;;1.13;;
65567;SDS011;52211;50.154;8.682;2023-09-30T13:12:11;2.17;;;1.30;;
65567;SDS011;52211;50.154;8.682;2023-09-30T13:14:42;1.97;;;1.33;;
65567;SDS011;52211;50.154;8.682;2023-09-30T13:17:09;3.10;;;1.43;;
65567;SDS011;52211;50.154;8.682;2023-09-30T13:19:40;1.20;;;1.10;;
65567;SDS011;52211;50.154;8.682;2023-09-30T13:22:08;1.47;;;1.33;;
65567;SDS011;52211;50.154;8.682;2023-09-30T13:24:46;1.53;;;1.40;;
65567;SDS011;52211;50.154;8.682;2023-09-30T13:27:19;1.83;;;1.37;;
65567;SDS011;52211;50.154;8.682;2023-09-30T13:29:48;1.33;;;1.23;;
65567;SDS011;52211;50.154;8.682;2023-09-30T13:32:20;1.70;;;1.53;;
65567;SDS011;52211;50.154;8.682;2023-09-30T13:34:52;1.63;;;1.30;;
65567;SDS011;52211;50.154;8.682;2023-09-30T13:37:19;2.13;;;1.63;;
65567;SDS011;52211;50.154;8.682;2023-09-30T13:39:51;1.27;;;1.17;;
65567;SDS011;52211;50.154;8.682;2023-09-30T13:42:18;2.43;;;1.53;;
65567;SDS011;52211;50.154;8.682;2023-09-30T13:44:47;2.13;;;1.60;;
65567;SDS011;52211;50.154;8.682;2023-09-30T13:47:14;1.77;;;1.43;;
65567;SDS011;52211;50.154;8.682;2023-09-30T13:49:50;2.03;;;1.53;;
65567;SDS011;52211;50.154;8.682;2023-09-30T13:52:17;4.37;;;1.83;;
65567;SDS011;52211;50.154;8.682;2023-09-30T13:54:44;2.33;;;1.30;;
65567;SDS011;52211;50.154;8.682;2023-09-30T13:57:11;1.40;;;1.30;;
65567;SDS011;52211;50.154;8.682;2023-09-30T13:59:45;3.07;;;1.37;;
65567;SDS011;52211;50.154;8.682;2023-09-30T14:02:14;2.80;;;1.40;;
65567;SDS011;52211;50.154;8.682;2023-09-30T14:04:44;1.63;;;1.50;;
65567;SDS011;52211;50.154;8.682;2023-09-30T14:07:13;3.00;;;1.63;;
65567;SDS011;52211;50.154;8.682;2023-09-30T14:09:40;3.07;;;1.30;;
65567;SDS011;52211;50.154;8.682;2023-09-30T14:12:11;2.17;;;1.47;;
65567;SDS011;52211;50.154;8.682;2023-09-30T14:14:42;4.30;;;1.60;;
65567;SDS011;52211;50.154;8.682;2023-09-30T14:17:11;2.10;;;1.20;;
65567;SDS011;52211;50.154;8.682;2023-09-30T14:19:41;1.90;;;1.20;;
65567;SDS011;52211;50.154;8.682;2023-09-30T14:22:08;1.30;;;1.20;;
65567;SDS011;52211;50.154;8.682;2023-09-30T14:24:35;2.17;;;2.00;;
65567;SDS011;52211;50.154;8.682;2023-09-30T14:27:07;2.43;;;1.50;;
65567;SDS011;52211;50.154;8.682;2023-09-30T14:29:36;1.83;;;1.43;;
65567;SDS011;52211;50.154;8.682;2023-09-30T14:32:03;1.40;;;1.23;;
65567;SDS011;52211;50.154;8.682;2023-09-30T14:34:30;2.30;;;1.33;;
65567;SDS011;52211;50.154;8.682;2023-09-30T14:36:57;2.43;;;1.37;;
65567;SDS011;52211;50.154;8.682;2023-09-30T14:39:24;2.80;;;1.37;;
65567;SDS011;52211;50.154;8.682;2023-09-30T14:41:53;1.37;;;1.10;;
65567;SDS011;52211;50.154;8.682;2023-09-30T14:44:21;2.27;;;1.80;;
65567;SDS011;52211;50.154;8.682;2023-09-30T14:46:52;1.60;;;1.23;;
65567;SDS011;52211;50.154;8.682;2023-09-30T14:49:19;2.50;;;1.73;;
65567;SDS011;52211;50.154;8.682;2023-09-30T14:51:51;3.67;;;1.40;;
65567;SDS011;52211;50.154;8.682;2023-09-30T14:54:24;1.53;;;1.30;;
65567;SDS011;52211;50.154;8.682;2023-09-30T14:56:54;1.30;;;1.20;;
65567;SDS011;52211;50.154;8.682;2023-09-30T14:59:21;1.27;;;1.10;;
65567;SDS011;52211;50.154;8.682;2023-09-30T15:01:48;1.93;;;1.30;;
65567;SDS011;52211;50.154;8.682;2023-09-30T15:04:15;1.73;;;1.50;;
65567;SDS011;52211;50.154;8.682;2023-09-30T15:06:45;1.33;;;1.23;;
65567;SDS011;52211;50.154;8.682;2023-09-30T15:09:16;1.80;;;1.53;;
65567;SDS011;52211;50.154;8.682;2023-09-30T15:11:48;1.53;;;1.40;;
65567;SDS011;52211;50.154;8.682;2023-09-30T15:14:15;1.70;;;1.20;;
65567;SDS011;52211;50.154;8.682;2023-09-30T15:16:47;2.43;;;1.77;;